Time;durP1;ratioP1;P1;durP2;ratioP2;P2;SDS_P1;SDS_P2;PMS_P1;PMS_P2;Temp;Humidity;BMP_temperature;BMP_pressure;BME280_temperature;BME280_humidity;BME280_pressure;Samples;Min_cycle;Max_cycle;Signal;HPM_P1;HPM_P2
2024/01/03 00:04:41;;;;;;;0.70;0.30;;;;;;;18.28;53.50;95227.31;10394645;28;20048;-30
2024/01/03 00:09:41;;;;;;;0.50;0.27;;;;;;;18.28;53.56;95227.31;10394025;28;20040;-30
2024/01/03 00:14:42;;;;;;;0.40;0.40;;;;;;;18.34;53.25;95247.47;10390946;28;20045;-30
2024/01/03 00:19:44;;;;;;;0.83;0.40;;;;;;;18.37;53.06;95237.25;10397230;28;20029;-29
2024/01/03 00:24:46;;;;;;;1.67;0.25;;;;;;;18.36;53.23;95235.59;10395775;28;20033;-29
2024/01/03 00:29:51;;;;;;;0.88;0.30;;;;;;;18.35;53.31;95239.81;10391084;28;20045;-30
2024/01/03 00:34:52;;;;;;;1.60;0.50;;;;;;;18.36;53.15;95245.72;10396744;28;20049;-29
2024/01/03 00:39:54;;;;;;;1.38;0.40;;;;;;;18.35;53.26;95249.13;10392829;28;20404;-30
2024/01/03 00:44:55;;;;;;;0.77;0.50;;;;;;;18.33;53.19;95240.75;10398133;28;20042;-29
2024/01/03 00:49:55;;;;;;;1.63;0.50;;;;;;;18.35;53.22;95241.53;10392695;28;20029;-30
2024/01/03 00:54:55;;;;;;;0.70;0.30;;;;;;;18.29;53.02;95231.50;10397078;28;20041;-29
2024/01/03 00:59:56;;;;;;;1.83;0.60;;;;;;;18.31;53.34;95238.22;10391998;28;20294;-30
2024/01/03 01:04:56;;;;;;;0.30;0.30;;;;;;;18.33;53.31;95230.63;10392941;28;20033;-29
2024/01/03 01:09:57;;;;;;;0.27;0.10;;;;;;;18.34;52.99;95242.41;10393616;28;20025;-30
2024/01/03 01:14:59;;;;;;;0.43;0.38;;;;;;;18.34;53.64;95262.66;10392659;28;20862;-30
2024/01/03 01:20:00;;;;;;;0.80;0.30;;;;;;;18.33;53.19;95266.91;10395131;28;20104;-29
2024/01/03 01:25:00;;;;;;;0.77;0.45;;;;;;;18.32;53.42;95265.22;10389610;28;20033;-30
2024/01/03 01:30:00;;;;;;;0.60;0.30;;;;;;;18.28;53.53;95257.69;10395128;28;20065;-29
2024/01/03 01:35:01;;;;;;;3.30;0.40;;;;;;;18.30;53.33;95286.41;10393151;28;20041;-30
2024/01/03 01:40:01;;;;;;;0.23;0.20;;;;;;;18.31;53.26;95273.69;10393087;28;20028;-30
2024/01/03 01:45:01;;;;;;;0.40;0.30;;;;;;;18.30;53.27;95299.91;10407716;28;20037;-29
2024/01/03 01:50:02;;;;;;;0.20;0.20;;;;;;;18.27;53.49;95296.56;10391211;28;20045;-30
2024/01/03 01:55:03;;;;;;;0.30;0.30;;;;;;;18.29;53.34;95300.78;10391234;28;20033;-30
2024/01/03 02:00:04;;;;;;;0.82;0.32;;;;;;;18.28;53.53;95303.31;10391407;28;20420;-30
2024/01/03 02:05:13;;;;;;;3.25;0.63;;;;;;;18.28;53.35;95293.16;10393169;28;20040;-31
2024/01/03 02:10:13;;;;;;;0.80;0.30;;;;;;;18.25;53.60;95290.72;10391334;28;20037;-29
2024/01/03 02:15:14;;;;;;;0.27;0.20;;;;;;;18.27;53.58;95287.28;10392523;28;20037;-29
2024/01/03 02:20:15;;;;;;;0.97;0.40;;;;;;;18.26;53.44;95290.66;10392984;28;20018;-29
2024/01/03 02:25:16;;;;;;;1.10;0.30;;;;;;;18.25;53.43;95294.06;10390342;28;20026;-29
2024/01/03 02:30:16;;;;;;;0.57;0.27;;;;;;;18.28;53.58;95283.03;10391498;28;20026;-30
2024/01/03 02:35:16;;;;;;;0.93;0.20;;;;;;;18.27;53.56;95294.03;10389262;28;20095;-30
2024/01/03 02:40:17;;;;;;;1.38;0.45;;;;;;;18.24;53.55;95281.44;10393746;28;20512;-29
2024/01/03 02:45:17;;;;;;;0.40;0.23;;;;;;;18.20;53.44;95274.78;10390174;28;20029;-29
2024/01/03 02:50:18;;;;;;;0.97;0.30;;;;;;;18.19;53.58;95260.44;10393198;28;20029;-29
2024/01/03 02:55:18;;;;;;;1.20;0.40;;;;;;;18.22;53.58;95267.97;10387341;28;20038;-30
2024/01/03 03:00:18;;;;;;;1.17;0.43;;;;;;;18.20;53.49;95259.56;10387129;28;20092;-30
2024/01/03 03:05:19;;;;;;;0.47;0.38;;;;;;;18.24;53.57;95278.91;10390140;28;20042;-29
2024/01/03 03:10:19;;;;;;;3.57;0.20;;;;;;;18.24;53.65;95266.25;10389980;28;20034;-29
2024/01/03 03:15:19;;;;;;;0.73;0.30;;;;;;;18.18;53.72;95276.50;10397462;28;20052;-29
2024/01/03 03:20:20;;;;;;;0.70;0.30;;;;;;;18.24;53.64;95273.84;10400220;28;20660;-29
2024/01/03 03:25:20;;;;;;;0.43;0.20;;;;;;;18.22;53.49;95262.91;10400170;28;20489;-29
2024/01/03 03:30:21;;;;;;;0.83;0.47;;;;;;;18.23;53.40;95274.69;10402967;28;20485;-30
2024/01/03 03:35:21;;;;;;;0.73;0.30;;;;;;;18.21;53.61;95271.38;10412822;28;20050;-29
2024/01/03 03:40:23;;;;;;;3.40;0.20;;;;;;;18.22;53.48;95268.81;10411054;28;20288;-30
2024/01/03 03:45:23;;;;;;;1.45;0.20;;;;;;;18.21;53.66;95281.50;10410901;28;20465;-29
2024/01/03 03:50:23;;;;;;;0.63;0.20;;;;;;;18.21;53.80;95266.31;10410193;28;20040;-32
2024/01/03 03:55:25;;;;;;;0.80;0.20;;;;;;;18.21;53.57;95277.28;10406368;28;20140;-30
2024/01/03 04:00:25;;;;;;;0.65;0.30;;;;;;;18.21;53.48;95274.75;10404347;28;20504;-30
2024/01/03 04:05:26;;;;;;;0.30;0.27;;;;;;;18.20;53.87;95279.84;10412246;28;20037;-29
2024/01/03 04:10:26;;;;;;;0.50;0.20;;;;;;;18.20;53.68;95287.44;10399802;28;20383;-30
2024/01/03 04:15:26;;;;;;;1.77;0.40;;;;;;;18.19;53.83;95284.09;10410946;28;20128;-30
2024/01/03 04:20:27;;;;;;;1.43;0.53;;;;;;;18.18;53.87;95282.38;10410667;28;20120;-29
2024/01/03 04:25:27;;;;;;;2.00;0.73;;;;;;;18.18;53.96;95286.63;10408401;28;20033;-30
2024/01/03 04:30:27;;;;;;;1.17;0.30;;;;;;;18.17;54.04;95274.84;10407381;28;20335;-30
2024/01/03 04:35:28;;;;;;;1.70;0.70;;;;;;;18.16;54.05;95278.25;10400520;28;20375;-29
2024/01/03 04:40:32;;;;;;;0.93;0.60;;;;;;;18.18;53.76;95276.50;10400957;28;20035;-29
2024/01/03 04:45:33;;;;;;;0.90;0.35;;;;;;;18.20;53.93;95278.16;10406072;28;20029;-29
2024/01/03 04:50:33;;;;;;;0.63;0.30;;;;;;;18.22;53.86;95303.41;10404825;28;20514;-29
2024/01/03 04:55:33;;;;;;;0.95;0.43;;;;;;;18.26;53.83;95289.84;10389848;28;20164;-29
2024/01/03 05:00:36;;;;;;;2.20;0.30;;;;;;;18.21;53.75;95284.88;10397187;28;20040;-30
2024/01/03 05:05:36;;;;;;;1.10;0.35;;;;;;;18.26;53.74;95310.09;10391885;28;20383;-29
2024/01/03 05:10:37;;;;;;;0.60;0.33;;;;;;;18.26;53.45;95285.59;10385765;28;20033;-30
2024/01/03 05:15:37;;;;;;;0.57;0.30;;;;;;;18.24;53.74;95281.44;10403982;28;20095;-30
2024/01/03 05:20:38;;;;;;;0.60;0.30;;;;;;;18.24;53.55;95286.53;10403760;28;21757;-29
2024/01/03 05:25:38;;;;;;;0.83;0.20;;;;;;;18.25;53.45;95303.38;10394563;28;20092;-29
2024/01/03 05:30:40;;;;;;;0.30;0.30;;;;;;;18.19;53.88;95288.31;10399482;28;20304;-29
2024/01/03 05:35:41;;;;;;;1.08;0.32;;;;;;;18.25;53.40;95313.50;10388441;28;20526;-30
2024/01/03 05:40:41;;;;;;;0.90;0.30;;;;;;;18.26;53.43;95305.84;10391899;28;20032;-29
2024/01/03 05:45:41;;;;;;;0.80;0.40;;;;;;;18.28;53.58;95305.84;10391476;28;20088;-30
2024/01/03 05:50:42;;;;;;;0.57;0.33;;;;;;;18.32;53.31;95304.94;10402363;28;20775;-29
2024/01/03 05:55:42;;;;;;;1.77;0.40;;;;;;;18.32;53.40;95315.09;10402449;28;20037;-29
2024/01/03 06:00:42;;;;;;;5.30;1.43;;;;;;;18.28;53.74;95326.09;10387445;28;20065;-29
2024/01/03 06:05:43;;;;;;;2.57;0.50;;;;;;;18.31;53.86;95339.56;10400073;28;20037;-29
2024/01/03 06:10:43;;;;;;;3.40;0.57;;;;;;;18.32;54.03;95325.22;10394887;28;20037;-29
2024/01/03 06:15:43;;;;;;;1.90;0.63;;;;;;;18.30;54.24;95348.03;10399166;28;20044;-30
2024/01/03 06:20:46;;;;;;;2.70;0.47;;;;;;;18.28;54.55;95333.69;10389116;28;20083;-29
2024/01/03 06:25:47;;;;;;;3.15;0.73;;;;;;;18.25;54.54;95343.91;10393251;28;20034;-29
2024/01/03 06:30:47;;;;;;;3.58;0.88;;;;;;;18.24;54.65;95314.38;10384094;28;20037;-29
2024/01/03 06:35:48;;;;;;;1.60;0.40;;;;;;;18.24;54.75;95320.25;10404307;28;20037;-31
2024/01/03 06:40:48;;;;;;;1.42;0.25;;;;;;;18.24;54.60;95320.25;10394337;28;20037;-30
2024/01/03 06:45:49;;;;;;;0.40;0.30;;;;;;;18.24;54.62;95325.31;10393768;28;20041;-29
2024/01/03 06:50:49;;;;;;;1.07;0.50;;;;;;;18.24;54.60;95343.06;10387900;28;20509;-30
2024/01/03 06:55:52;;;;;;;0.60;0.30;;;;;;;18.21;54.64;95348.19;10405065;28;20075;-31
2024/01/03 07:00:52;;;;;;;4.78;0.80;;;;;;;18.24;54.69;95367.56;10378019;28;20030;-31
2024/01/03 07:05:55;;;;;;;1.20;0.30;;;;;;;18.22;54.63;95346.47;10387330;28;20555;-30
2024/01/03 07:10:55;;;;;;;1.75;0.43;;;;;;;18.22;54.50;95346.47;10393826;28;20025;-29
2024/01/03 07:15:56;;;;;;;0.80;0.50;;;;;;;18.20;54.53;95305.16;10400238;28;20072;-30
2024/01/03 07:20:56;;;;;;;0.70;0.23;;;;;;;18.20;54.48;95308.53;10393722;28;20036;-29
2024/01/03 07:25:56;;;;;;;0.75;0.45;;;;;;;18.21;54.41;95352.41;10391403;28;20087;-30
2024/01/03 07:30:57;;;;;;;1.35;0.30;;;;;;;18.19;54.55;95338.97;10397151;28;20034;-29
2024/01/03 07:35:58;;;;;;;0.52;0.20;;;;;;;18.19;54.45;95314.47;10397292;28;20038;-31
2024/01/03 07:40:59;;;;;;;1.33;0.47;;;;;;;18.16;54.41;95328.91;10398325;28;20026;-30
2024/01/03 07:46:01;;;;;;;0.80;0.30;;;;;;;18.19;54.25;95338.97;10392800;28;20052;-30
2024/01/03 07:51:02;;;;;;;1.23;0.38;;;;;;;18.17;54.37;95301.00;10383327;28;20037;-29
2024/01/03 07:56:05;;;;;;;0.60;0.45;;;;;;;18.21;54.16;95347.34;10401452;28;20551;-30
2024/01/03 08:01:06;;;;;;;1.02;0.40;;;;;;;18.19;54.22;95333.91;10382605;28;20034;-29
2024/01/03 08:06:07;;;;;;;1.67;0.53;;;;;;;18.18;54.30;95311.97;10389283;28;20087;-29
2024/01/03 08:11:07;;;;;;;0.77;0.40;;;;;;;18.15;54.49;95291.78;10395758;28;20040;-29
2024/01/03 08:16:07;;;;;;;1.07;0.50;;;;;;;18.18;54.13;95317.03;10399057;28;20315;-29
2024/01/03 08:21:08;;;;;;;0.60;0.30;;;;;;;18.16;54.28;95319.59;10393577;28;20037;-30
2024/01/03 08:26:09;;;;;;;1.20;0.30;;;;;;;18.16;54.44;95323.84;10400008;28;20414;-29
2024/01/03 08:31:15;;;;;;;1.40;0.25;;;;;;;18.16;54.21;95313.72;10400309;28;20034;-29
2024/01/03 08:36:15;;;;;;;0.43;0.32;;;;;;;18.16;54.37;95344.09;10408675;28;20558;-29
2024/01/03 08:41:18;;;;;;;0.30;0.30;;;;;;;18.15;54.14;95312.03;10403158;28;20037;-29
2024/01/03 08:46:18;;;;;;;0.77;0.20;;;;;;;18.15;54.31;95337.38;10396002;28;20104;-30
2024/01/03 08:51:18;;;;;;;0.50;0.30;;;;;;;18.14;54.21;95339.06;10396750;28;20111;-29
2024/01/03 08:56:19;;;;;;;0.40;0.20;;;;;;;18.15;54.25;95367.75;10400098;28;20044;-29
2024/01/03 09:01:21;;;;;;;0.20;0.10;;;;;;;18.13;54.25;95385.50;10406979;28;20021;-30
2024/01/03 09:06:25;;;;;;;1.27;0.40;;;;;;;18.08;54.25;95340.88;10405397;28;20061;-29
2024/01/03 09:11:28;;;;;;;0.60;0.38;;;;;;;18.10;54.20;95370.41;10404297;28;20088;-30
2024/01/03 09:16:30;;;;;;;0.52;0.30;;;;;;;18.11;54.32;95376.28;10405294;28;20056;-29
2024/01/03 09:21:31;;;;;;;0.57;0.30;;;;;;;18.09;54.14;95367.88;10399268;28;20502;-30
2024/01/03 09:26:31;;;;;;;0.35;0.30;;;;;;;18.09;54.11;95373.75;10401734;28;20037;-30
2024/01/03 09:31:33;;;;;;;0.77;0.50;;;;;;;18.05;54.43;95389.91;10401892;28;20037;-29
2024/01/03 09:36:33;;;;;;;0.82;0.30;;;;;;;18.07;54.18;95374.69;10397978;28;20132;-29
2024/01/03 09:41:34;;;;;;;0.53;0.30;;;;;;;18.04;54.27;95397.50;10396241;28;20030;-30
2024/01/03 09:46:34;;;;;;;1.00;0.40;;;;;;;18.05;54.23;95427.03;10398119;28;20297;-29
2024/01/03 09:51:35;;;;;;;0.93;0.10;;;;;;;18.08;54.36;95389.00;10403302;28;20040;-31
2024/01/03 09:56:38;;;;;;;0.63;0.43;;;;;;;18.05;54.23;95407.63;10402082;28;20544;-30
2024/01/03 10:01:52;;;;;;;0.22;0.20;;;;;;;18.05;54.32;95439.69;10399118;28;20416;-29
2024/01/03 10:06:54;;;;;;;0.47;0.30;;;;;;;18.04;54.27;95421.16;10394278;28;20029;-30
2024/01/03 10:11:54;;;;;;;0.52;0.40;;;;;;;18.04;54.32;95423.69;10398598;28;20032;-29
2024/01/03 10:17:08;;;;;;;0.50;0.23;;;;;;;18.04;54.19;95430.44;10401565;28;20032;-29
2024/01/03 10:22:09;;;;;;;0.75;0.10;;;;;;;18.02;54.26;95437.22;10395467;28;20029;-30
2024/01/03 10:27:10;;;;;;;0.30;0.20;;;;;;;18.03;54.27;95446.50;10392971;28;20041;-29
2024/01/03 10:32:14;;;;;;;0.47;0.20;;;;;;;18.02;54.20;95442.28;10394862;28;20033;-30
2024/01/03 10:37:14;;;;;;;1.80;0.25;;;;;;;18.01;54.20;95446.50;10391799;28;20124;-30
2024/01/03 10:42:16;;;;;;;0.57;0.20;;;;;;;18.01;54.10;95445.69;10395424;28;20091;-28
2024/01/03 10:47:16;;;;;;;0.50;0.30;;;;;;;17.99;54.61;95462.63;10397462;28;20034;-29
2024/01/03 10:52:22;;;;;;;0.33;0.20;;;;;;;17.98;54.35;95473.63;10393401;28;20505;-29
2024/01/03 10:57:27;;;;;;;0.25;0.17;;;;;;;17.99;54.05;95449.97;10390801;28;20046;-29
2024/01/03 11:02:37;;;;;;;0.90;0.30;;;;;;;17.99;54.23;95447.44;10391470;28;20058;-29
2024/01/03 11:07:44;;;;;;;0.47;0.30;;;;;;;17.92;54.18;95436.56;10400001;28;20032;-29
2024/01/03 11:12:45;;;;;;;0.30;0.22;;;;;;;17.99;54.03;95414.50;10397015;28;20049;-30
2024/01/03 11:17:47;;;;;;;0.20;0.20;;;;;;;18.02;54.17;95402.63;10402685;28;20044;-30
2024/01/03 11:22:58;;;;;;;0.50;0.20;;;;;;;17.96;53.91;95400.19;10389160;28;20037;-29
2024/01/03 11:28:33;;;;;;;0.60;0.28;;;;;;;18.06;53.90;95423.63;10391551;28;20029;-29
2024/01/03 11:33:38;;;;;;;0.52;0.20;;;;;;;18.08;53.75;95406.72;10395978;28;20033;-29
2024/01/03 11:38:43;;;;;;;0.45;0.30;;;;;;;18.05;53.77;95417.75;10398957;28;20440;-31
2024/01/03 11:43:46;;;;;;;0.45;0.28;;;;;;;18.09;53.69;95409.22;10397145;28;20127;-29
2024/01/03 11:48:47;;;;;;;0.10;0.10;;;;;;;18.08;53.41;95384.75;10389745;28;20037;-29
2024/01/03 11:53:47;;;;;;;0.20;0.20;;;;;;;18.07;53.92;95384.81;10397029;28;20370;-29
2024/01/03 11:58:55;;;;;;;0.87;0.63;;;;;;;18.08;53.76;95386.47;10401250;28;20295;-30
2024/01/03 12:04:12;;;;;;;1.20;0.50;;;;;;;18.05;53.82;95391.56;10403615;28;20029;-29
2024/01/03 12:09:13;;;;;;;0.80;0.32;;;;;;;18.11;53.71;95386.41;10403522;28;20045;-30
2024/01/03 12:14:17;;;;;;;0.75;0.20;;;;;;;18.16;53.57;95364.38;10400547;28;20029;-29
2024/01/03 12:19:30;;;;;;;0.43;0.40;;;;;;;18.20;53.56;95365.94;10403449;28;20064;-30
2024/01/03 12:24:38;;;;;;;0.85;0.40;;;;;;;18.23;53.21;95317.75;10399402;28;20045;-31
2024/01/03 12:29:41;;;;;;;0.82;0.30;;;;;;;18.19;53.26;95273.09;10392195;28;20054;-29
2024/01/03 12:34:43;;;;;;;0.30;0.20;;;;;;;18.29;52.88;95294.84;10406016;28;20034;-29
2024/01/03 12:39:43;;;;;;;0.10;0.10;;;;;;;18.29;52.69;95294.84;10398946;28;20634;-29
2024/01/03 12:44:44;;;;;;;1.00;0.30;;;;;;;18.27;53.12;95297.41;10396009;28;20100;-29
2024/01/03 12:49:44;;;;;;;0.10;0.10;;;;;;;18.25;53.01;95293.25;10402583;28;20037;-30
2024/01/03 12:54:44;;;;;;;0.20;0.20;;;;;;;18.26;53.17;95289.84;10399923;28;20040;-29
2024/01/03 12:59:45;;;;;;;2.53;0.43;;;;;;;18.19;52.23;95281.56;10386535;28;20098;-29
2024/01/03 13:04:45;;;;;;;1.07;0.40;;;;;;;18.26;52.58;95261.97;10384188;28;20409;-29
2024/01/03 13:09:46;;;;;;;0.40;0.30;;;;;;;18.29;52.49;95272.91;10390849;28;20081;-26
2024/01/03 13:14:46;;;;;;;0.45;0.28;;;;;;;18.27;52.64;95261.94;10391074;28;20045;-28
2024/01/03 13:19:47;;;;;;;1.87;0.23;;;;;;;18.32;52.63;95251.75;10387934;28;20033;-30
2024/01/03 13:24:47;;;;;;;0.47;0.20;;;;;;;18.30;52.79;95259.38;10393451;28;20296;-30
2024/01/03 13:29:48;;;;;;;0.35;0.30;;;;;;;18.28;52.78;95238.28;10389056;28;22375;-29
2024/01/03 13:34:48;;;;;;;0.60;0.40;;;;;;;18.19;52.81;95202.19;10395595;28;20034;-29
2024/01/03 13:39:48;;;;;;;4.30;0.60;;;;;;;18.23;52.84;95204.63;10391975;28;20375;-29
2024/01/03 13:44:49;;;;;;;16.97;4.57;;;;;;;18.31;53.21;95207.84;10393178;28;20717;-29
2024/01/03 13:49:49;;;;;;;13.40;1.10;;;;;;;18.30;53.23;95205.31;10385702;28;20044;-30
2024/01/03 13:54:49;;;;;;;8.57;1.03;;;;;;;18.29;53.05;95213.78;10395827;28;20042;-29
2024/01/03 13:59:50;;;;;;;8.70;1.00;;;;;;;18.37;52.80;95191.66;10398775;28;20077;-30
2024/01/03 14:04:50;;;;;;;9.70;1.23;;;;;;;18.38;52.61;95195.84;10396884;28;20048;-29
2024/01/03 14:09:51;;;;;;;8.32;1.00;;;;;;;18.30;52.58;95200.25;10391447;28;20033;-30
2024/01/03 14:14:51;;;;;;;8.87;0.97;;;;;;;18.34;52.69;95176.53;10389504;28;20051;-30
2024/01/03 14:19:51;;;;;;;6.37;1.33;;;;;;;18.37;52.52;95176.44;10389147;28;20781;-30
2024/01/03 14:24:53;;;;;;;4.03;1.00;;;;;;;18.38;52.58;95191.63;10394581;28;20068;-29
2024/01/03 14:29:53;;;;;;;6.47;1.27;;;;;;;18.33;52.30;95195.13;10393244;28;20129;-29
2024/01/03 14:34:53;;;;;;;4.27;1.00;;;;;;;18.27;52.55;95207.91;10399650;28;20527;-29
2024/01/03 14:39:54;;;;;;;9.87;1.30;;;;;;;18.33;52.69;95195.97;10390794;28;20647;-30
2024/01/03 14:44:54;;;;;;;2.88;1.20;;;;;;;18.36;52.90;95215.31;10399117;28;20535;-29
2024/01/03 14:49:55;;;;;;;6.13;1.60;;;;;;;18.35;52.44;95234.75;10387191;28;20033;-29
2024/01/03 14:54:55;;;;;;;4.93;1.10;;;;;;;18.39;52.63;95200.03;10394036;28;20485;-29
2024/01/03 14:59:56;;;;;;;3.67;1.43;;;;;;;18.39;52.77;95225.38;10390392;28;20037;-30
2024/01/03 15:04:56;;;;;;;2.37;1.33;;;;;;;18.35;52.76;95247.41;10394455;28;20576;-30
2024/01/03 15:09:57;;;;;;;6.80;1.67;;;;;;;18.39;52.83;95217.78;10388838;28;20125;-29
2024/01/03 15:14:57;;;;;;;2.63;1.33;;;;;;;18.38;52.88;95209.38;10393225;28;20037;-29
2024/01/03 15:19:57;;;;;;;3.37;1.30;;;;;;;18.37;52.81;95211.91;10388878;28;20504;-30
2024/01/03 15:24:58;;;;;;;2.40;1.10;;;;;;;18.38;52.49;95208.50;10386370;28;20038;-29
2024/01/03 15:29:58;;;;;;;2.10;0.90;;;;;;;18.37;52.85;95201.78;10400030;28;20041;-29
2024/01/03 15:34:58;;;;;;;1.97;1.03;;;;;;;18.38;53.12;95186.56;10399279;28;20042;-29
2024/01/03 15:39:59;;;;;;;2.03;1.17;;;;;;;18.43;52.67;95184.72;10400254;28;20087;-31
2024/01/03 15:44:59;;;;;;;3.87;1.50;;;;;;;18.41;52.71;95140.06;10391626;28;20042;-30
2024/01/03 15:50:00;;;;;;;3.20;1.37;;;;;;;18.38;52.49;95137.56;10386602;28;20037;-30
2024/01/03 15:55:00;;;;;;;13.02;4.05;;;;;;;18.32;52.90;95148.69;10397998;28;20404;-30
2024/01/03 16:00:04;;;;;;;10.57;3.93;;;;;;;18.38;52.66;95112.25;10398164;28;20493;-31
2024/01/03 16:05:05;;;;;;;17.17;5.38;;;;;;;18.35;52.80;95112.31;10397439;28;20481;-31
2024/01/03 16:10:06;;;;;;;8.07;3.45;;;;;;;18.31;52.71;95096.38;10400976;28;20039;-30
2024/01/03 16:15:06;;;;;;;14.52;3.83;;;;;;;18.28;52.66;95105.72;10403377;28;20049;-29
2024/01/03 16:20:07;;;;;;;10.13;3.47;;;;;;;18.26;52.80;95085.47;10400942;28;20522;-29
2024/01/03 16:25:10;;;;;;;9.50;3.35;;;;;;;18.35;52.74;95074.31;10393314;28;20045;-30
2024/01/03 16:30:11;;;;;;;10.90;5.18;;;;;;;18.38;52.73;95064.09;10400509;28;20021;-29
2024/01/03 16:35:13;;;;;;;8.57;3.63;;;;;;;18.39;52.62;95058.16;10402161;28;20068;-29
2024/01/03 16:40:14;;;;;;;10.63;3.28;;;;;;;18.43;52.46;95072.44;10396563;28;20069;-29
2024/01/03 16:45:14;;;;;;;9.80;3.90;;;;;;;18.44;52.36;95086.75;10400325;28;20474;-30
2024/01/03 16:50:15;;;;;;;7.53;3.03;;;;;;;18.45;52.40;95078.28;10395464;28;20030;-30
2024/01/03 16:55:15;;;;;;;4.97;2.90;;;;;;;18.48;52.33;95051.16;10402784;28;20041;-29
2024/01/03 17:00:17;;;;;;;7.07;2.30;;;;;;;18.50;52.21;95041.00;10395723;28;20022;-29
2024/01/03 17:05:18;;;;;;;5.90;2.90;;;;;;;18.48;52.39;95062.97;10398625;28;20037;-29
2024/01/03 17:10:18;;;;;;;8.68;4.07;;;;;;;18.45;53.25;95084.19;10394858;28;20029;-30
2024/01/03 17:15:19;;;;;;;8.43;3.67;;;;;;;18.44;53.75;95079.16;10400835;28;20760;-29
2024/01/03 17:20:20;;;;;;;8.67;3.43;;;;;;;18.49;53.23;95125.50;10401833;28;20045;-29
2024/01/03 17:25:20;;;;;;;9.27;4.40;;;;;;;18.47;53.44;95137.34;10399340;28;20382;-29
2024/01/03 17:30:21;;;;;;;8.90;3.95;;;;;;;18.41;53.50;95157.78;10400404;28;20037;-29
2024/01/03 17:35:22;;;;;;;8.93;4.43;;;;;;;18.36;54.57;95170.56;10395892;28;20045;-30
2024/01/03 17:40:25;;;;;;;11.48;4.72;;;;;;;18.43;54.68;95219.38;10393990;28;20044;-29
2024/01/03 17:45:25;;;;;;;8.07;3.35;;;;;;;18.51;54.49;95258.06;10399394;28;20034;-29
2024/01/03 17:50:26;;;;;;;20.10;6.60;;;;;;;18.53;53.92;95219.13;10393851;28;20041;-30
2024/01/03 17:55:26;;;;;;;10.47;3.50;;;;;;;18.51;54.17;95187.09;10401958;28;20034;-30
2024/01/03 18:00:28;;;;;;;13.07;3.92;;;;;;;18.52;54.02;95209.03;10391090;28;20034;-30
2024/01/03 18:05:28;;;;;;;14.45;5.78;;;;;;;18.47;54.20;95210.81;10396761;28;20107;-30
2024/01/03 18:10:29;;;;;;;9.80;4.10;;;;;;;18.43;54.60;95212.59;10400103;28;20393;-29
2024/01/03 18:15:30;;;;;;;6.97;2.83;;;;;;;18.40;54.81;95224.53;10397084;28;20416;-29
2024/01/03 18:20:31;;;;;;;11.20;3.92;;;;;;;18.49;55.52;95231.91;10397134;28;20516;-29
2024/01/03 18:25:31;;;;;;;7.13;2.93;;;;;;;18.52;55.04;95267.31;10386339;28;20086;-30
2024/01/03 18:30:31;;;;;;;17.70;3.37;;;;;;;18.48;54.96;95253.03;10397791;28;20033;-30
2024/01/03 18:35:32;;;;;;;14.73;3.58;;;;;;;18.51;54.70;95261.41;10405602;28;20513;-30
2024/01/03 18:40:33;;;;;;;9.70;3.20;;;;;;;18.55;55.02;95257.09;10385856;28;20041;-30
2024/01/03 18:45:33;;;;;;;7.55;2.50;;;;;;;18.53;54.83;95249.56;10394592;28;20080;-30
2024/01/03 18:50:34;;;;;;;9.73;2.97;;;;;;;18.54;54.67;95250.38;10391377;28;20033;-30
2024/01/03 18:55:34;;;;;;;15.60;3.07;;;;;;;18.55;54.68;95252.88;10393205;28;20296;-30
2024/01/03 19:00:38;;;;;;;6.53;2.33;;;;;;;18.54;54.63;95252.91;10395449;28;20026;-30
2024/01/03 19:05:40;;;;;;;10.32;2.50;;;;;;;18.56;54.39;95259.59;10391167;28;20527;-31
2024/01/03 19:10:40;;;;;;;7.22;2.80;;;;;;;18.55;54.69;95263.00;10400637;28;20069;-29
2024/01/03 19:15:40;;;;;;;13.23;2.43;;;;;;;18.59;54.52;95239.25;10393160;28;20573;-28
2024/01/03 19:20:41;;;;;;;6.17;2.27;;;;;;;18.54;54.70;95252.91;10390365;28;20037;-31
2024/01/03 19:25:42;;;;;;;5.35;2.35;;;;;;;18.57;54.53;95283.25;10385672;28;20049;-30
2024/01/03 19:30:43;;;;;;;8.95;2.67;;;;;;;18.51;55.34;95260.59;10386708;28;20034;-30
2024/01/03 19:35:43;;;;;;;7.50;2.43;;;;;;;18.50;55.32;95280.00;10385464;28;20037;-30
2024/01/03 19:40:44;;;;;;;8.88;2.53;;;;;;;18.52;55.41;95282.53;10384260;28;20980;-30
2024/01/03 19:45:44;;;;;;;6.20;2.20;;;;;;;18.53;55.03;95266.44;10385972;28;20494;-30
2024/01/03 19:50:44;;;;;;;7.07;2.53;;;;;;;18.52;55.45;95285.91;10386236;28;20030;-30
2024/01/03 19:55:45;;;;;;;7.47;2.50;;;;;;;18.52;55.22;95278.31;10381854;28;20038;-31
2024/01/03 20:00:48;;;;;;;6.20;2.60;;;;;;;18.53;55.07;95285.03;10382966;28;20034;-29
2024/01/03 20:05:49;;;;;;;9.20;2.70;;;;;;;18.55;56.04;95297.66;10384752;28;20120;-30
2024/01/03 20:10:49;;;;;;;5.40;2.30;;;;;;;18.52;55.73;95278.31;10397760;28;20041;-30
2024/01/03 20:15:50;;;;;;;6.27;2.30;;;;;;;18.57;55.47;95293.41;10393811;28;21162;-30
2024/01/03 20:20:51;;;;;;;5.50;1.60;;;;;;;18.59;55.64;95289.13;10374138;28;20477;-31
2024/01/03 20:25:51;;;;;;;3.83;1.85;;;;;;;18.55;55.76;95302.72;10394510;28;20042;-30
2024/01/03 20:30:51;;;;;;;5.13;2.30;;;;;;;18.54;55.91;95311.19;10388154;28;20045;-30
2024/01/03 20:35:52;;;;;;;4.00;1.67;;;;;;;18.52;56.23;95348.41;10389828;28;20038;-29
2024/01/03 20:40:52;;;;;;;3.20;1.93;;;;;;;18.55;56.00;95353.41;10395404;28;20033;-29
2024/01/03 20:45:52;;;;;;;4.60;1.53;;;;;;;18.56;56.14;95350.84;10389814;28;20409;-29
2024/01/03 20:50:53;;;;;;;6.50;2.23;;;;;;;18.61;56.04;95363.41;10395930;28;20296;-30
2024/01/03 20:55:54;;;;;;;5.57;1.70;;;;;;;18.59;56.42;95375.28;10393255;28;20037;-32
2024/01/03 21:00:54;;;;;;;3.88;1.55;;;;;;;18.55;56.39;95359.31;10385940;28;20033;-29
2024/01/03 21:05:54;;;;;;;4.40;1.83;;;;;;;18.60;55.58;95371.88;10391086;28;20026;-29
2024/01/03 21:10:55;;;;;;;3.53;1.57;;;;;;;18.59;55.50;95385.44;10388177;28;20041;-30
2024/01/03 21:15:55;;;;;;;4.13;1.50;;;;;;;18.61;55.48;95369.34;10390346;28;20033;-29
2024/01/03 21:20:56;;;;;;;4.93;2.10;;;;;;;18.61;55.50;95378.63;10390856;28;20386;-29
2024/01/03 21:25:56;;;;;;;3.90;1.67;;;;;;;18.59;56.07;95380.38;10399604;28;20060;-30
2024/01/03 21:30:57;;;;;;;3.27;1.53;;;;;;;18.61;55.55;95381.16;10385752;28;20029;-30
2024/01/03 21:35:57;;;;;;;3.50;1.75;;;;;;;18.58;55.50;95366.03;10387193;28;20041;-30
2024/01/03 21:40:57;;;;;;;5.03;1.83;;;;;;;18.54;55.45;95379.63;10393746;28;20037;-30
2024/01/03 21:45:57;;;;;;;3.77;1.77;;;;;;;18.56;55.39;95404.06;10389027;28;20040;-29
2024/01/03 21:50:58;;;;;;;4.53;1.63;;;;;;;18.52;55.50;95391.50;10392378;28;20141;-31
2024/01/03 21:55:58;;;;;;;2.90;1.37;;;;;;;18.46;55.57;95384.00;10389326;28;20092;-29
2024/01/03 22:00:59;;;;;;;9.47;1.60;;;;;;;18.42;55.11;95392.56;10401564;28;20053;-32
2024/01/03 22:05:59;;;;;;;3.05;1.60;;;;;;;18.49;55.19;95391.56;10402853;28;20640;-31
2024/01/03 22:11:01;;;;;;;2.50;1.17;;;;;;;18.45;55.26;95403.47;10387196;28;20079;-29
2024/01/03 22:16:03;;;;;;;4.15;1.30;;;;;;;18.46;55.37;95402.59;10406693;28;20037;-29
2024/01/03 22:21:04;;;;;;;4.88;1.65;;;;;;;18.46;55.40;95414.41;10399498;28;20048;-28
2024/01/03 22:26:04;;;;;;;3.77;1.53;;;;;;;18.48;55.05;95407.63;10406860;28;20408;-30
2024/01/03 22:31:05;;;;;;;3.83;2.13;;;;;;;18.43;55.39;95409.44;10405907;28;20504;-31
2024/01/03 22:36:05;;;;;;;2.75;1.40;;;;;;;18.44;55.50;95426.28;10398601;28;20053;-30
2024/01/03 22:41:05;;;;;;;5.38;2.60;;;;;;;18.44;55.54;95411.94;10395772;28;20527;-29
2024/01/03 22:46:06;;;;;;;2.67;1.10;;;;;;;18.48;54.89;95433.81;10402342;28;20038;-29
2024/01/03 22:51:06;;;;;;;5.23;1.50;;;;;;;18.47;54.82;95442.28;10387101;28;20103;-30
2024/01/03 22:56:06;;;;;;;8.07;1.37;;;;;;;18.48;54.75;95453.22;10384494;28;20659;-30
2024/01/03 23:01:07;;;;;;;7.20;1.50;;;;;;;18.46;54.84;95444.81;10393955;28;20034;-29
2024/01/03 23:06:07;;;;;;;2.17;1.13;;;;;;;18.49;54.97;95457.47;10395312;28;20055;-29
2024/01/03 23:11:08;;;;;;;3.08;1.13;;;;;;;18.46;54.83;95455.81;10393423;28;20148;-32
2024/01/03 23:16:09;;;;;;;3.53;1.73;;;;;;;18.45;54.85;95440.63;10387382;28;20500;-29
2024/01/03 23:21:17;;;;;;;2.90;1.15;;;;;;;18.43;54.91;95424.63;10398353;28;20326;-29